Time;durP1;ratioP1;P1;durP2;ratioP2;P2;SDS_P1;SDS_P2;PMS_P1;PMS_P2;Temp;Humidity;BMP_temperature;BMP_pressure;BME280_temperature;BME280_humidity;BME280_pressure;Samples;Min_cycle;Max_cycle;Signal;HPM_P1;HPM_P2
2022/06/03 00:01:55;;;;;;;42.13;24.05;;;;;;;15.86;87.31;99968.09;6188442;23;20068;-78
2022/06/03 00:04:58;;;;;;;43.78;23.65;;;;;;;15.75;87.26;99970.16;6098583;23;20022;-79
2022/06/03 00:07:27;;;;;;;44.58;23.60;;;;;;;15.74;87.53;99971.06;6215045;23;20017;-78
2022/06/03 00:10:12;;;;;;;56.67;27.80;;;;;;;15.72;87.96;99964.97;6188615;23;20024;-78
2022/06/03 00:13:01;;;;;;;53.70;25.88;;;;;;;15.63;87.62;99966.94;6213284;23;20078;-79
2022/06/03 00:15:30;;;;;;;39.92;23.85;;;;;;;15.62;87.20;99972.25;6163943;23;20023;-78
2022/06/03 00:18:32;;;;;;;38.70;22.48;;;;;;;15.53;87.31;99973.34;6188551;23;20111;-79
2022/06/03 00:21:04;;;;;;;34.50;20.30;;;;;;;15.48;87.49;99970.81;6163781;23;20106;-79
2022/06/03 00:24:05;;;;;;;30.95;18.05;;;;;;;15.47;87.92;99961.25;6163557;23;20012;-79
2022/06/03 00:26:46;;;;;;;30.50;18.23;;;;;;;15.53;87.76;99975.97;6209492;23;20012;-77
2022/06/03 00:29:38;;;;;;;27.42;16.67;;;;;;;15.52;87.70;99979.50;6190039;23;20017;-79
2022/06/03 00:32:20;;;;;;;24.55;16.17;;;;;;;15.49;87.85;99976.94;6118704;23;20016;-78
2022/06/03 00:35:04;;;;;;;23.50;15.05;;;;;;;15.42;87.50;99985.88;6217235;23;20020;-78
2022/06/03 00:37:52;;;;;;;24.75;13.80;;;;;;;15.36;87.52;99984.28;6189050;23;20645;-79
2022/06/03 00:40:39;;;;;;;22.27;12.55;;;;;;;15.31;87.44;99989.63;6215318;23;20020;-78
2022/06/03 00:43:35;;;;;;;24.42;14.02;;;;;;;15.28;87.55;99986.22;6213480;23;20020;-78
2022/06/03 00:46:31;;;;;;;26.85;13.90;;;;;;;15.23;87.73;99978.47;6118546;23;20020;-78
2022/06/03 00:49:14;;;;;;;20.70;12.73;;;;;;;15.23;87.63;99991.59;6188100;23;20344;-79
2022/06/03 00:52:04;;;;;;;19.23;12.05;;;;;;;15.15;87.47;100002.25;6215143;23;20012;-79
2022/06/03 00:55:14;;;;;;;18.48;12.38;;;;;;;14.97;87.59;99977.34;6188265;23;20019;-79
2022/06/03 00:58:08;;;;;;;20.83;12.10;;;;;;;15.04;87.19;99999.91;6162435;23;20463;-78
2022/06/03 01:00:53;;;;;;;18.33;12.55;;;;;;;14.95;87.67;99970.44;6214647;23;20074;-77
2022/06/03 01:03:38;;;;;;;17.48;10.77;;;;;;;15.10;87.72;99996.25;6163037;23;20020;-78
2022/06/03 01:06:07;;;;;;;17.23;11.40;;;;;;;15.14;87.73;99987.44;6186896;23;20362;-78
2022/06/03 01:08:49;;;;;;;18.13;11.45;;;;;;;15.17;87.91;99979.50;6187395;23;20020;-78
2022/06/03 01:11:40;;;;;;;14.15;10.05;;;;;;;15.26;87.70;99983.66;6188197;23;20023;-78
2022/06/03 01:14:24;;;;;;;17.35;11.07;;;;;;;15.21;87.66;99975.03;6215075;23;20063;-77
2022/06/03 01:17:02;;;;;;;19.23;11.70;;;;;;;15.29;87.85;99978.34;6187479;23;20021;-78
2022/06/03 01:19:46;;;;;;;13.40;10.13;;;;;;;15.33;87.71;99981.72;6187565;23;20031;-77
2022/06/03 01:22:36;;;;;;;13.65;9.90;;;;;;;15.16;87.61;99966.41;6215875;23;20039;-78
2022/06/03 01:25:35;;;;;;;15.70;10.40;;;;;;;15.25;87.53;99979.31;6217112;23;20016;-81
2022/06/03 01:28:27;;;;;;;13.77;9.80;;;;;;;15.18;87.33;99981.22;6188521;23;20115;-78
2022/06/03 01:31:18;;;;;;;17.90;11.10;;;;;;;15.29;88.16;99975.72;6193068;23;20451;-77
2022/06/03 01:33:50;;;;;;;12.57;9.95;;;;;;;15.38;87.94;99977.22;6190673;23;20028;-77
2022/06/03 01:36:55;;;;;;;12.57;9.40;;;;;;;15.36;87.68;99981.66;6186402;23;20509;-78
2022/06/03 01:39:21;;;;;;;15.82;9.32;;;;;;;15.33;87.56;99973.84;6212750;23;20078;-78
2022/06/03 01:42:36;;;;;;;16.05;9.77;;;;;;;15.36;87.64;99966.75;6213935;23;20427;-77
2022/06/03 01:46:00;;;;;;;;;;;;;;;;;;;;;
2022/06/03 01:49:17;;;;;;;11.93;8.60;;;;;;;15.40;87.35;99962.31;6214802;23;20012;-78
2022/06/03 02:00:42;;;;;;;;;;;;;;;;;;;;;
2022/06/03 02:04:48;;;;;;;14.93;8.98;;;;;;;15.40;87.58;99957.06;6139788;23;20041;-76
2022/06/03 02:07:46;;;;;;;13.23;8.77;;;;;;;14.76;87.20;99848.63;6115776;23;20044;-78
2022/06/03 02:14:55;;;;;;;12.55;9.02;;;;;;;15.31;87.42;99950.31;6140001;23;20386;-79
2022/06/03 02:18:02;;;;;;;12.45;9.15;;;;;;;15.18;87.27;99925.31;6215050;23;20481;-78
2022/06/03 02:20:53;;;;;;;16.50;9.98;;;;;;;15.32;87.43;99944.19;6215416;23;20013;-78
2022/06/03 02:23:52;;;;;;;13.73;9.80;;;;;;;15.32;87.57;99936.31;6186720;23;20020;-76
2022/06/03 02:30:38;;;;;;;;;;;;;;;;;;;;;
2022/06/03 02:34:03;;;;;;;12.85;8.77;;;;;;;15.40;87.55;99946.59;6197926;23;20346;-80
2022/06/03 02:40:52;;;;;;;12.38;8.15;;;;;;;15.59;87.53;99946.94;6111701;23;20376;-78
2022/06/03 02:44:05;;;;;;;12.95;8.55;;;;;;;15.07;87.62;99844.34;6098538;23;20022;-77
2022/06/03 02:46:59;;;;;;;11.30;8.32;;;;;;;15.77;87.41;99934.25;6097255;23;20096;-77
2022/06/03 02:49:43;;;;;;;11.55;8.40;;;;;;;15.78;87.23;99934.19;6204656;23;20016;-77
2022/06/03 02:52:40;;;;;;;12.68;8.13;;;;;;;15.28;87.47;99852.53;6187089;23;20017;-76
2022/06/03 02:55:25;;;;;;;11.98;8.48;;;;;;;15.80;87.25;99921.88;6187568;23;20021;-77
2022/06/03 02:58:57;;;;;;;;;;;;;;;;;;;;;
2022/06/03 03:02:12;;;;;;;10.63;7.65;;;;;;;15.93;87.25;99908.44;6177403;23;20044;-78
2022/06/03 03:05:22;;;;;;;;;;;;;;;;;;;;;
2022/06/03 03:12:39;;;;;;;10.15;7.68;;;;;;;16.19;87.33;99914.66;6184814;23;20039;-79
2022/06/03 03:15:15;;;;;;;12.02;7.18;;;;;;;16.42;86.84;99935.00;6188035;23;20043;-78
2022/06/03 03:18:03;;;;;;;10.32;7.35;;;;;;;16.46;87.01;99933.97;6211612;23;20016;-79
2022/06/03 03:21:06;;;;;;;11.45;8.35;;;;;;;16.63;87.21;99924.72;6212538;23;20100;-78
2022/06/03 03:23:38;;;;;;;11.48;7.60;;;;;;;16.74;86.88;99921.75;6212461;23;20016;-77
2022/06/03 03:26:27;;;;;;;10.43;7.45;;;;;;;16.85;87.01;99915.22;6163777;23;20035;-76
2022/06/03 03:29:33;;;;;;;9.93;6.88;;;;;;;17.08;86.78;99918.00;6213264;23;20112;-79
2022/06/03 03:32:20;;;;;;;10.20;7.20;;;;;;;17.21;86.71;99921.09;6214247;23;20035;-77
2022/06/03 03:34:49;;;;;;;8.57;7.15;;;;;;;17.30;86.71;99910.25;6188431;23;20067;-79
2022/06/03 03:37:31;;;;;;;8.90;6.78;;;;;;;17.39;86.77;99896.75;6188548;23;20020;-76
2022/06/03 03:40:19;;;;;;;9.07;6.68;;;;;;;17.54;86.74;99898.00;6215022;23;20189;-78
2022/06/03 03:42:52;;;;;;;8.23;6.50;;;;;;;17.66;86.34;99898.44;6216695;23;20044;-79
2022/06/03 03:45:30;;;;;;;9.23;6.90;;;;;;;17.73;86.17;99908.72;6217960;23;20559;-78
2022/06/03 03:48:20;;;;;;;8.90;6.65;;;;;;;17.80;85.77;99904.06;6216584;23;20075;-78
2022/06/03 03:51:54;;;;;;;7.75;6.25;;;;;;;17.84;85.53;99907.44;6189709;23;20047;-79
2022/06/03 03:54:35;;;;;;;10.52;6.90;;;;;;;17.91;85.92;99906.31;6054119;23;20096;-77
2022/06/03 03:57:17;;;;;;;10.75;7.05;;;;;;;18.16;85.79;99910.66;6213133;23;20020;-79
2022/06/03 04:00:04;;;;;;;10.38;6.50;;;;;;;18.35;85.44;99898.50;6215625;23;20024;-77
2022/06/03 04:02:56;;;;;;;11.80;7.03;;;;;;;18.44;84.76;99902.53;6212023;23;20055;-79
2022/06/03 04:05:42;;;;;;;10.43;6.45;;;;;;;18.40;84.60;99897.47;6187572;23;20357;-77
2022/06/03 04:08:41;;;;;;;9.70;6.47;;;;;;;18.44;84.72;99891.13;6212241;23;20036;-77
2022/06/03 04:11:17;;;;;;;10.68;7.00;;;;;;;18.46;84.23;99899.81;6213500;23;20462;-78
2022/06/03 04:13:58;;;;;;;9.43;6.13;;;;;;;18.49;84.09;99899.72;6213624;23;20032;-77
2022/06/03 04:16:34;;;;;;;8.50;6.93;;;;;;;18.45;83.87;99892.84;6215556;23;20017;-77
2022/06/03 04:19:29;;;;;;;11.13;6.78;;;;;;;18.71;84.31;99883.91;6210349;23;20118;-78
2022/06/03 04:22:00;;;;;;;9.30;6.70;;;;;;;18.95;83.79;99882.03;6188005;23;20009;-77
2022/06/03 04:24:49;;;;;;;8.55;6.10;;;;;;;19.11;83.88;99862.91;6212828;23;20028;-77
2022/06/03 04:27:40;;;;;;;7.28;5.95;;;;;;;19.34;83.23;99866.31;6187788;23;20008;-76
2022/06/03 04:30:45;;;;;;;11.25;6.00;;;;;;;19.43;83.10;99873.84;6164532;23;20020;-77
2022/06/03 04:33:43;;;;;;;9.18;6.50;;;;;;;19.48;82.58;99871.84;6214013;23;20013;-79
2022/06/03 04:36:37;;;;;;;8.95;6.10;;;;;;;19.61;82.54;99866.00;6213480;23;20024;-76
2022/06/03 04:39:41;;;;;;;10.25;5.95;;;;;;;19.80;82.52;99869.50;6190567;23;20450;-77
2022/06/03 04:43:01;;;;;;;10.30;6.15;;;;;;;20.02;82.39;99872.06;6217943;23;20143;-78
2022/06/03 04:46:02;;;;;;;8.20;5.90;;;;;;;20.46;81.68;99876.13;6125222;23;20017;-79
2022/06/03 04:49:09;;;;;;;5.68;5.15;;;;;;;20.76;81.29;99875.56;6217460;23;20023;-77
2022/06/03 04:52:12;;;;;;;8.05;5.68;;;;;;;20.72;80.40;99876.63;6215163;23;20016;-77
2022/06/03 04:54:48;;;;;;;8.98;5.93;;;;;;;20.54;80.11;99866.97;6217325;23;20017;-77
2022/06/03 04:57:42;;;;;;;8.70;5.90;;;;;;;20.25;79.35;99853.38;6218219;23;20066;-77
2022/06/03 05:00:20;;;;;;;10.60;6.00;;;;;;;20.17;79.55;99841.44;6165202;23;20047;-76
2022/06/03 05:03:08;;;;;;;7.65;5.97;;;;;;;20.40;79.67;99828.00;6189940;23;20131;-78
2022/06/03 05:06:16;;;;;;;7.03;5.60;;;;;;;20.60;79.13;99808.53;6191428;23;20031;-77
2022/06/03 05:14:23;;;;;;;10.60;5.65;;;;;;;21.12;78.39;99807.66;6136166;23;20038;-78
2022/06/03 05:17:20;;;;;;;7.18;5.40;;;;;;;21.39;78.21;99787.72;6237460;23;20051;-78
2022/06/03 05:20:34;;;;;;;6.90;5.32;;;;;;;21.75;78.55;99781.38;6210349;23;20016;-79
2022/06/03 05:36:20;;;;;;;5.38;4.70;;;;;;;22.54;74.10;99803.41;6026104;23;20015;-79
2022/06/03 05:39:28;;;;;;;6.82;5.13;;;;;;;22.61;73.03;99807.41;6121786;23;20018;-79
2022/06/03 05:42:27;;;;;;;9.15;5.47;;;;;;;22.74;71.77;99811.97;6244606;23;20016;-77
2022/06/03 05:45:12;;;;;;;6.85;4.95;;;;;;;22.94;72.60;99816.97;6216703;23;20019;-79
2022/06/03 05:47:44;;;;;;;8.20;5.03;;;;;;;22.99;72.21;99814.03;6216916;23;20093;-77
2022/06/03 05:50:50;;;;;;;9.23;5.70;;;;;;;22.97;71.54;99818.56;6217115;23;20037;-78
2022/06/03 05:53:38;;;;;;;7.28;5.32;;;;;;;22.82;71.60;99825.66;6216846;23;20083;-77
2022/06/03 05:56:35;;;;;;;6.72;5.32;;;;;;;22.58;70.97;99827.97;6169022;23;20055;-77
2022/06/03 06:12:19;;;;;;;10.23;6.93;;;;;;;24.03;69.42;99811.13;6142290;23;20022;-76
2022/06/03 06:15:09;;;;;;;8.77;6.88;;;;;;;24.87;68.77;99804.78;6209549;23;20039;-81
2022/06/03 06:18:11;;;;;;;11.77;6.73;;;;;;;25.09;67.23;99805.00;6178745;23;20005;-83
2022/06/03 06:20:43;;;;;;;;;;;;;;;24.63;66.02;99806.31;6221065;23;20275;-81
2022/06/03 06:23:20;;;;;;;11.27;6.43;;;;;;;24.10;66.70;99778.84;6191726;23;20341;-81
2022/06/03 06:25:58;;;;;;;12.15;7.55;;;;;;;24.03;66.46;99813.78;6215338;23;20016;-79
2022/06/03 06:29:05;;;;;;;11.48;8.15;;;;;;;23.67;66.85;99817.84;6187705;23;20303;-76
2022/06/03 06:37:57;;;;;;;15.25;9.13;;;;;;;22.67;67.33;99819.44;6121168;23;20531;-80
2022/06/03 06:50:49;;;;;;;17.65;10.75;;;;;;;21.78;68.93;99829.72;6122019;23;20016;-79
2022/06/03 06:58:03;;;;;;;15.02;10.52;;;;;;;21.29;69.28;99843.81;6099832;23;20108;-77
2022/06/03 07:00:42;;;;;;;13.23;10.80;;;;;;;21.09;69.83;99862.50;6180315;23;20021;-78
2022/06/03 07:03:34;;;;;;;34.58;19.65;;;;;;;20.07;69.92;99858.63;6212883;23;20016;-78
2022/06/03 07:06:14;;;;;;;43.22;20.10;;;;;;;19.01;72.46;99887.97;6164330;23;20036;-80
2022/06/03 07:09:30;;;;;;;24.25;12.95;;;;;;;18.39;75.25;99922.94;6211844;23;20027;-80
2022/06/03 07:12:15;;;;;;;27.23;13.90;;;;;;;17.94;77.13;99889.53;6186552;23;20032;-79
2022/06/03 07:14:56;;;;;;;21.60;12.70;;;;;;;17.75;78.16;99863.91;6213306;23;20050;-79
2022/06/03 07:20:57;;;;;;;25.77;13.50;;;;;;;17.58;79.93;99880.31;6187800;23;20032;-80
2022/06/03 07:23:48;;;;;;;17.05;11.13;;;;;;;17.49;80.52;99884.13;6137399;23;20020;-79
2022/06/03 07:26:38;;;;;;;24.70;14.70;;;;;;;17.48;81.03;99886.84;6186184;23;20412;-81
2022/06/03 07:29:14;;;;;;;28.88;15.48;;;;;;;17.50;81.37;99891.13;6187616;23;20450;-80
2022/06/03 07:32:28;;;;;;;45.50;18.85;;;;;;;17.62;82.11;99874.03;6163742;23;20051;-87
2022/06/03 07:36:15;;;;;;;27.20;14.85;;;;;;;17.77;82.32;99860.28;6062221;23;20062;-80
2022/06/03 07:39:06;;;;;;;42.05;19.20;;;;;;;17.65;82.67;99812.56;5979345;24;20020;-79
2022/06/03 07:42:04;;;;;;;51.78;23.73;;;;;;;17.75;83.04;99791.09;5984083;23;20031;-78
2022/06/03 07:44:59;;;;;;;20.27;13.73;;;;;;;18.40;83.26;99836.88;6091405;23;20022;-76
2022/06/03 07:47:28;;;;;;;27.75;15.60;;;;;;;18.59;83.25;99829.06;6191239;23;20023;-77
2022/06/03 07:49:58;;;;;;;18.52;11.90;;;;;;;18.85;83.45;99825.34;6216193;23;20031;-78
2022/06/03 07:52:40;;;;;;;21.02;14.30;;;;;;;19.35;83.78;99833.75;6190641;23;20048;-78
2022/06/03 07:55:16;;;;;;;24.92;12.63;;;;;;;19.65;83.69;99836.75;6167513;23;20023;-77
2022/06/03 07:57:52;;;;;;;11.00;7.97;;;;;;;19.60;82.77;99841.41;6172815;23;20017;-78
2022/06/03 08:00:20;;;;;;;13.27;8.85;;;;;;;19.46;83.07;99813.03;6206387;23;20020;-79
2022/06/03 08:03:12;;;;;;;10.15;7.47;;;;;;;19.62;82.88;99852.75;6203005;23;20095;-78
2022/06/03 08:05:43;;;;;;;14.70;6.90;;;;;;;19.52;82.64;99841.78;6192108;23;20390;-79
2022/06/03 08:11:06;;;;;;;13.02;8.93;;;;;;;19.57;83.50;99831.00;6176319;23;20028;-79
2022/06/03 08:13:41;;;;;;;10.30;7.05;;;;;;;19.84;83.47;99839.41;6223800;23;20360;-77
2022/06/03 08:16:23;;;;;;;6.53;5.78;;;;;;;19.96;83.09;99837.16;6206418;23;20078;-77
2022/06/03 08:19:13;;;;;;;10.27;5.65;;;;;;;19.75;82.97;99831.06;6249812;23;20012;-79
2022/06/03 08:21:51;;;;;;;7.03;5.85;;;;;;;19.63;82.79;99836.00;6196453;23;20099;-77
2022/06/03 08:24:24;;;;;;;9.52;6.03;;;;;;;19.65;83.27;99849.97;6221118;23;20170;-77
2022/06/03 08:26:56;;;;;;;6.68;5.30;;;;;;;19.55;83.08;99825.78;6194818;23;20421;-78
2022/06/03 08:29:56;;;;;;;7.85;5.85;;;;;;;19.56;82.91;99831.94;6196157;23;20075;-79
2022/06/03 08:32:30;;;;;;;7.03;5.75;;;;;;;19.63;82.84;99858.88;6189594;23;20100;-80
2022/06/03 08:35:00;;;;;;;8.65;6.03;;;;;;;19.36;82.95;99835.44;6213722;23;20031;-79
2022/06/03 08:37:50;;;;;;;6.65;5.60;;;;;;;19.33;82.53;99861.97;6214952;23;20044;-79
2022/06/03 08:40:25;;;;;;;7.55;6.32;;;;;;;19.27;83.00;99863.97;6188726;23;20481;-78
2022/06/03 08:43:06;;;;;;;8.50;5.45;;;;;;;19.06;82.73;99854.34;6214388;23;20023;-78
2022/06/03 08:45:39;;;;;;;10.85;7.72;;;;;;;19.12;83.06;99869.91;6222713;23;20020;-79
2022/06/03 08:48:17;;;;;;;8.88;6.82;;;;;;;19.17;83.31;99867.91;6199188;23;20035;-80
2022/06/03 08:50:51;;;;;;;8.02;6.80;;;;;;;19.30;83.18;99878.78;6221374;23;20099;-79
2022/06/03 08:53:35;;;;;;;9.48;6.88;;;;;;;19.35;82.94;99876.81;6216707;23;20020;-78
2022/06/03 08:56:07;;;;;;;10.38;6.90;;;;;;;19.44;83.13;99885.22;6165137;23;20458;-78
2022/06/03 08:58:48;;;;;;;10.13;7.18;;;;;;;19.64;82.85;99889.63;6215879;23;20024;-78
2022/06/03 09:01:29;;;;;;;9.85;6.50;;;;;;;19.71;82.41;99880.50;6220702;23;20040;-79
2022/06/03 09:04:10;;;;;;;7.00;5.95;;;;;;;19.83;82.67;99890.50;6215477;23;20021;-80
2022/06/03 09:06:44;;;;;;;7.28;6.15;;;;;;;19.90;82.52;99874.41;6212889;23;20017;-78
2022/06/03 09:10:05;;;;;;;8.27;6.20;;;;;;;20.04;81.64;99887.81;6164813;23;20016;-79
2022/06/03 09:12:31;;;;;;;7.40;5.60;;;;;;;20.10;81.56;99887.53;6098486;23;20021;-78
2022/06/03 09:15:08;;;;;;;6.00;5.40;;;;;;;20.12;81.62;99888.31;6206737;22;20043;-76
2022/06/03 09:21:40;;;;;;;6.70;6.00;;;;;;;19.97;80.91;99852.09;6105176;23;20101;-76
2022/06/03 09:24:20;;;;;;;7.75;6.22;;;;;;;19.72;80.75;99842.63;6193822;23;20020;-77
2022/06/03 09:27:04;;;;;;;6.75;5.97;;;;;;;19.67;80.34;99847.25;6245374;23;20362;-78
2022/06/03 09:30:11;;;;;;;10.43;6.18;;;;;;;20.03;80.68;99891.38;6193456;23;20046;-78
2022/06/03 09:32:49;;;;;;;6.63;5.97;;;;;;;20.43;81.19;99873.63;6197607;23;20020;-80
2022/06/03 09:35:20;;;;;;;6.40;5.77;;;;;;;21.30;81.25;99871.94;6248246;23;20016;-78
2022/06/03 09:38:03;;;;;;;6.25;5.65;;;;;;;21.71;80.18;99880.47;6192934;23;20012;-78
2022/06/03 09:41:00;;;;;;;7.53;6.15;;;;;;;22.04;78.77;99887.50;6244190;23;20433;-79
2022/06/03 09:43:38;;;;;;;8.27;6.38;;;;;;;21.80;78.35;99853.47;6193399;23;20480;-79
2022/06/03 09:46:19;;;;;;;6.57;5.90;;;;;;;21.61;77.89;99872.16;6218818;23;20445;-78
2022/06/03 09:49:07;;;;;;;7.32;6.57;;;;;;;20.74;77.60;99819.25;6197635;23;20016;-76
2022/06/03 09:52:52;;;;;;;;;;;;;;;;;;;;;
2022/06/03 09:55:25;;;;;;;8.35;6.50;;;;;;;20.88;76.65;99887.31;6164663;23;20099;-77
2022/06/03 09:57:54;;;;;;;6.72;6.00;;;;;;;20.57;76.81;99872.09;6264267;23;20098;-77
2022/06/03 10:00:25;;;;;;;7.45;6.55;;;;;;;20.53;76.53;99884.59;6200531;23;20026;-78
2022/06/03 10:02:56;;;;;;;7.40;6.70;;;;;;;20.18;76.28;99871.31;6193566;23;20091;-77
2022/06/03 10:05:28;;;;;;;8.27;7.00;;;;;;;19.89;76.01;99880.63;6195348;23;20358;-77
2022/06/03 10:08:04;;;;;;;7.63;6.53;;;;;;;19.80;76.99;99890.63;6191672;23;20437;-77
2022/06/03 10:13:31;;;;;;;8.35;7.28;;;;;;;19.32;76.70;99854.97;6218922;23;20027;-77
2022/06/03 10:16:07;;;;;;;9.48;6.95;;;;;;;19.24;76.46;99863.22;6217724;23;20075;-78
2022/06/03 10:19:11;;;;;;;9.40;7.40;;;;;;;19.00;77.21;99807.16;6193998;23;20073;-80
2022/06/03 10:21:55;;;;;;;8.40;6.72;;;;;;;19.47;76.95;99816.50;6210668;23;20020;-79
2022/06/03 10:24:30;;;;;;;8.15;6.72;;;;;;;19.89;77.01;99839.22;6219694;23;20015;-79
2022/06/03 10:27:01;;;;;;;11.35;6.78;;;;;;;20.21;76.88;99815.72;6220127;23;20103;-78
2022/06/03 10:29:51;;;;;;;9.68;7.30;;;;;;;21.18;76.37;99867.31;6242523;23;20019;-79
2022/06/03 10:32:30;;;;;;;9.15;6.90;;;;;;;21.41;74.96;99870.53;6242141;23;20047;-77
2022/06/03 10:35:16;;;;;;;7.53;6.50;;;;;;;21.43;74.46;99855.44;6216200;23;20035;-78
2022/06/03 10:38:15;;;;;;;9.65;7.20;;;;;;;21.87;74.08;99880.47;6190893;23;20027;-78
2022/06/03 10:41:20;;;;;;;7.57;6.55;;;;;;;22.06;73.47;99862.66;6201002;23;20059;-79
2022/06/03 10:43:56;;;;;;;8.18;6.55;;;;;;;22.26;73.03;99871.25;6214154;23;20024;-77
2022/06/03 10:46:29;;;;;;;9.07;6.50;;;;;;;22.10;71.14;99877.41;6147287;23;20020;-79
2022/06/03 10:49:26;;;;;;;8.00;6.65;;;;;;;21.69;71.15;99847.94;6244405;23;20016;-78
2022/06/03 11:02:55;;;;;;;6.38;5.75;;;;;;;22.94;69.71;99855.91;6244729;23;20016;-79
2022/06/03 11:05:27;;;;;;;6.57;5.90;;;;;;;23.17;69.33;99904.94;6191661;23;20019;-78
2022/06/03 11:08:42;;;;;;;5.65;5.05;;;;;;;23.15;68.67;99913.00;6192010;23;20019;-79
2022/06/03 11:11:52;;;;;;;8.52;6.25;;;;;;;23.16;68.95;99912.03;6170319;23;20015;-78
2022/06/03 11:14:46;;;;;;;11.10;10.00;;;;;;;23.41;68.31;99905.28;6190521;23;20019;-79
2022/06/03 11:23:43;;;;;;;5.88;4.40;;;;;;;22.45;66.75;99831.31;6206330;23;20023;-78
2022/06/03 11:26:20;;;;;;;5.13;4.25;;;;;;;22.78;66.86;99875.38;6192383;23;20458;-77
2022/06/03 11:29:08;;;;;;;;;;;;;;;;;;;;;
2022/06/03 11:31:47;;;;;;;4.88;4.05;;;;;;;23.22;65.69;99928.59;6221468;23;20035;-82
2022/06/03 11:34:38;;;;;;;4.32;3.90;;;;;;;23.56;65.13;99911.47;6221751;23;20375;-80
2022/06/03 11:37:22;;;;;;;6.20;4.75;;;;;;;23.64;65.03;99892.41;6246241;23;20012;-79
2022/06/03 11:40:19;;;;;;;17.58;13.32;;;;;;;24.22;64.47;99950.81;6222214;23;20023;-79
2022/06/03 11:43:06;;;;;;;9.90;6.47;;;;;;;24.13;64.00;99919.53;6248107;23;20020;-78
2022/06/03 11:45:49;;;;;;;8.05;4.90;;;;;;;24.00;63.30;99964.63;6223018;23;20050;-79
2022/06/03 11:49:10;;;;;;;7.15;4.00;;;;;;;22.99;64.02;99904.25;6227347;23;20012;-78
2022/06/03 11:51:52;;;;;;;5.93;3.92;;;;;;;22.70;65.82;99912.97;6123903;23;20023;-80
2022/06/03 11:54:52;;;;;;;6.65;4.70;;;;;;;22.72;67.14;99910.22;6230972;23;20020;-82
2022/06/03 12:01:46;;;;;;;6.80;4.82;;;;;;;23.39;67.72;99957.63;6219086;23;20016;-81
2022/06/03 12:05:27;;;;;;;8.10;5.00;;;;;;;23.47;67.73;99959.81;6250645;23;20035;-80
2022/06/03 12:13:15;;;;;;;6.75;4.25;;;;;;;23.31;67.61;99975.78;6213619;23;20374;-81
2022/06/03 12:16:35;;;;;;;9.13;5.38;;;;;;;23.02;67.59;99995.09;6146891;23;20028;-79
2022/06/03 12:20:17;;;;;;;;;;;;;;;;;;;;;
2022/06/03 12:23:27;;;;;;;7.40;5.40;;;;;;;22.48;67.62;99995.50;6076218;23;20063;-79
2022/06/03 12:25:53;;;;;;;6.28;5.57;;;;;;;22.28;67.88;100001.88;6068826;23;20019;-79
2022/06/03 12:28:48;;;;;;;6.82;5.38;;;;;;;22.09;68.19;100018.75;6144211;23;20017;-79
2022/06/03 12:32:09;;;;;;;9.85;5.05;;;;;;;21.58;68.41;99957.84;6158884;23;20013;-80
2022/06/03 12:35:50;;;;;;;8.35;4.30;;;;;;;21.78;68.37;100027.47;6083854;23;20018;-79
2022/06/03 12:39:27;;;;;;;;;;;;;;;;;;;;;
2022/06/03 12:43:09;;;;;;;6.10;4.30;;;;;;;20.92;68.27;99984.09;6153075;23;20032;-78
2022/06/03 12:46:24;;;;;;;4.53;4.05;;;;;;;21.58;68.53;100062.91;6037615;23;20022;-80
2022/06/03 12:49:38;;;;;;;5.10;4.00;;;;;;;21.70;67.72;100061.47;6074253;23;20028;-81
2022/06/03 12:55:36;;;;;;;9.13;6.93;;;;;;;21.40;67.57;100033.78;6183506;23;20428;-79
2022/06/03 12:58:52;;;;;;;;;;;;;;;;;;;;;
2022/06/03 13:02:00;;;;;;;7.80;4.95;;;;;;;21.26;67.78;100062.72;6162084;23;20028;-78
2022/06/03 13:04:39;;;;;;;7.00;5.20;;;;;;;21.10;67.08;100089.91;6134744;23;20017;-79
2022/06/03 13:07:36;;;;;;;8.20;4.45;;;;;;;20.73;67.44;100095.13;6110154;23;20013;-79
2022/06/03 13:10:07;;;;;;;10.88;8.45;;;;;;;20.54;67.99;100102.19;6180382;23;20025;-80
2022/06/03 13:12:37;;;;;;;15.15;10.55;;;;;;;20.38;68.49;100112.59;6159874;23;20021;-80
2022/06/03 13:15:22;;;;;;;14.45;10.43;;;;;;;20.32;68.31;100111.09;6128633;23;20024;-79
2022/06/03 13:18:18;;;;;;;10.38;5.45;;;;;;;20.32;68.45;100121.66;6114266;23;20045;-79
2022/06/03 13:21:17;;;;;;;6.80;4.70;;;;;;;19.52;68.21;100021.22;6154014;23;20049;-78
2022/06/03 13:24:24;;;;;;;5.53;3.70;;;;;;;19.54;68.27;100066.84;6125208;23;20403;-80
2022/06/03 13:27:59;;;;;;;4.32;3.47;;;;;;;19.77;68.06;100133.63;6154412;23;20009;-78
2022/06/03 13:30:40;;;;;;;4.15;3.00;;;;;;;19.19;67.84;100049.84;6144004;23;20021;-78
2022/06/03 13:33:25;;;;;;;4.45;3.33;;;;;;;19.82;67.73;100144.88;6139011;23;20020;-78
2022/06/03 13:39:08;;;;;;;;;;;;;;;19.74;67.72;100148.75;6112025;23;20041;-78
2022/06/03 13:57:52;;;;;;;6.68;3.10;;;;;;;19.72;65.47;100157.59;6035671;23;20019;-79
2022/06/03 14:04:36;;;;;;;7.15;3.10;;;;;;;19.37;65.25;100157.25;6140052;23;20045;-79
2022/06/03 14:07:39;;;;;;;6.57;3.30;;;;;;;18.65;65.08;100058.91;6128611;23;20363;-81
2022/06/03 14:14:24;;;;;;;4.55;2.78;;;;;;;19.69;65.28;100165.63;6139088;23;20103;-79
2022/06/03 14:17:01;;;;;;;5.50;2.92;;;;;;;19.44;64.90;100102.47;6156839;23;20448;-80
2022/06/03 14:19:27;;;;;;;;;;;;;;;19.82;64.51;100150.16;6160967;23;20047;-78
2022/06/03 14:22:23;;;;;;;3.40;2.20;;;;;;;19.73;64.53;100161.13;6157758;23;19990;-81
2022/06/03 14:25:10;;;;;;;3.97;2.42;;;;;;;19.70;64.37;100155.97;6188140;23;20099;-81
2022/06/03 14:28:28;;;;;;;4.72;2.00;;;;;;;19.72;64.19;100159.41;6160847;23;20048;-79
2022/06/03 14:31:02;;;;;;;5.45;2.78;;;;;;;19.78;64.35;100164.41;6147068;23;20021;-79
2022/06/03 14:33:54;;;;;;;3.42;2.45;;;;;;;19.75;63.63;100158.41;6185053;23;20025;-78
2022/06/03 14:36:33;;;;;;;3.30;2.30;;;;;;;19.73;63.62;100171.69;6131793;23;20012;-77
2022/06/03 14:39:16;;;;;;;3.85;2.83;;;;;;;19.42;63.59;100135.97;6156574;23;20021;-79
2022/06/03 14:41:57;;;;;;;3.80;2.85;;;;;;;18.78;63.91;100043.47;6157613;23;20102;-79
2022/06/03 14:44:55;;;;;;;2.63;2.40;;;;;;;18.99;64.13;100100.75;6137416;23;20316;-78
2022/06/03 14:47:31;;;;;;;6.00;3.63;;;;;;;19.00;64.67;100100.66;6183314;23;20017;-78
2022/06/03 14:50:06;;;;;;;10.77;4.57;;;;;;;19.34;64.55;100178.50;6132970;23;20093;-79
2022/06/03 14:52:48;;;;;;;7.22;2.83;;;;;;;18.64;64.28;100070.41;6156899;23;20188;-80
2022/06/03 14:55:56;;;;;;;3.40;2.00;;;;;;;18.81;64.19;100096.09;6131116;23;20028;-78
2022/06/03 14:58:44;;;;;;;2.45;2.10;;;;;;;19.10;64.40;100152.16;6084264;23;20045;-79
2022/06/03 15:01:40;;;;;;;3.40;1.70;;;;;;;18.82;64.29;100118.91;6156812;23;20021;-79
2022/06/03 15:05:11;;;;;;;3.00;2.03;;;;;;;19.06;64.38;100163.72;6156575;23;20021;-76
2022/06/03 15:08:12;;;;;;;3.35;2.25;;;;;;;18.93;64.38;100165.94;6095391;23;20086;-79
2022/06/03 15:10:51;;;;;;;4.93;3.08;;;;;;;18.70;64.08;100137.81;6095942;23;20218;-78
2022/06/03 15:13:33;;;;;;;3.55;2.28;;;;;;;18.50;64.52;100126.25;6110754;23;20099;-80
2022/06/03 15:16:14;;;;;;;5.40;2.20;;;;;;;17.95;64.78;100052.69;6158507;23;20080;-79
2022/06/03 15:18:46;;;;;;;4.85;2.38;;;;;;;18.30;64.79;100110.31;6130624;23;20394;-80
2022/06/03 15:25:26;;;;;;;4.43;2.10;;;;;;;18.63;64.34;100174.09;6146232;23;20029;-79
2022/06/03 15:28:14;;;;;;;4.82;2.45;;;;;;;18.18;64.26;100124.78;6127075;23;20017;-80
2022/06/03 15:31:24;;;;;;;3.42;2.10;;;;;;;18.20;63.87;100136.97;6153673;23;20048;-80
2022/06/03 15:34:10;;;;;;;4.65;2.42;;;;;;;17.79;63.90;100085.69;6127617;23;20040;-79
2022/06/03 15:40:08;;;;;;;3.15;2.85;;;;;;;18.13;63.70;100169.69;6152914;23;20017;-80
2022/06/03 15:43:02;;;;;;;3.17;2.85;;;;;;;18.04;64.00;100178.75;6152937;23;20025;-80
2022/06/03 15:45:50;;;;;;;5.50;2.40;;;;;;;17.67;64.03;100126.44;6146167;23;20112;-81
2022/06/03 15:48:23;;;;;;;2.40;2.03;;;;;;;17.74;64.21;100143.75;6155276;23;20017;-81
2022/06/03 15:51:05;;;;;;;4.22;2.97;;;;;;;17.80;64.37;100174.28;6152732;23;20024;-78
2022/06/03 15:54:16;;;;;;;;;;;;;;;;;;;;;
2022/06/03 15:57:31;;;;;;;5.60;4.38;;;;;;;17.74;64.36;100193.75;6032441;23;20430;-80
2022/06/03 16:00:05;;;;;;;7.32;4.72;;;;;;;17.68;64.39;100191.31;6153310;23;20040;-82
2022/06/03 16:03:22;;;;;;;6.75;4.57;;;;;;;17.59;64.45;100181.94;6152286;23;20056;-82
2022/06/03 16:06:08;;;;;;;4.40;3.67;;;;;;;17.13;64.48;100124.63;6111213;23;20017;-78